sensor_id;sensor_type;location;lat;lon;timestamp;P1;durP1;ratioP1;P2;durP2;ratioP2
71164;SDS011;58859;55.132;-1.586;2023-02-15T00:01:51;42.20;;;18.53;;
71164;SDS011;58859;55.132;-1.586;2023-02-15T00:04:18;35.60;;;18.40;;
71164;SDS011;58859;55.132;-1.586;2023-02-15T00:06:45;41.33;;;18.50;;
71164;SDS011;58859;55.132;-1.586;2023-02-15T00:09:11;49.20;;;19.73;;
71164;SDS011;58859;55.132;-1.586;2023-02-15T00:11:37;38.85;;;17.48;;
71164;SDS011;58859;55.132;-1.586;2023-02-15T00:16:34;37.37;;;18.07;;
71164;SDS011;58859;55.132;-1.586;2023-02-15T00:18:59;34.88;;;16.88;;
71164;SDS011;58859;55.132;-1.586;2023-02-15T00:21:29;38.55;;;17.33;;
71164;SDS011;58859;55.132;-1.586;2023-02-15T00:23:55;43.33;;;18.30;;
71164;SDS011;58859;55.132;-1.586;2023-02-15T00:26:21;35.20;;;17.93;;
71164;SDS011;58859;55.132;-1.586;2023-02-15T00:28:47;38.95;;;18.02;;
71164;SDS011;58859;55.132;-1.586;2023-02-15T00:31:12;33.87;;;16.27;;
71164;SDS011;58859;55.132;-1.586;2023-02-15T00:33:38;33.60;;;17.02;;
71164;SDS011;58859;55.132;-1.586;2023-02-15T00:36:05;34.67;;;17.63;;
71164;SDS011;58859;55.132;-1.586;2023-02-15T00:38:32;34.95;;;16.40;;
71164;SDS011;58859;55.132;-1.586;2023-02-15T00:40:58;35.20;;;17.38;;
71164;SDS011;58859;55.132;-1.586;2023-02-15T00:43:25;33.13;;;17.00;;
71164;SDS011;58859;55.132;-1.586;2023-02-15T00:45:51;32.03;;;16.23;;
71164;SDS011;58859;55.132;-1.586;2023-02-15T00:48:17;31.75;;;16.60;;
71164;SDS011;58859;55.132;-1.586;2023-02-15T00:50:46;36.57;;;16.03;;
71164;SDS011;58859;55.132;-1.586;2023-02-15T00:53:14;34.13;;;17.25;;
71164;SDS011;58859;55.132;-1.586;2023-02-15T00:55:39;35.17;;;17.73;;
71164;SDS011;58859;55.132;-1.586;2023-02-15T00:58:05;33.10;;;16.00;;
71164;SDS011;58859;55.132;-1.586;2023-02-15T01:00:31;33.03;;;16.98;;
71164;SDS011;58859;55.132;-1.586;2023-02-15T01:02:57;34.23;;;17.07;;
71164;SDS011;58859;55.132;-1.586;2023-02-15T01:05:22;35.43;;;16.83;;
71164;SDS011;58859;55.132;-1.586;2023-02-15T01:07:47;39.93;;;18.40;;
71164;SDS011;58859;55.132;-1.586;2023-02-15T01:10:13;33.77;;;16.87;;
71164;SDS011;58859;55.132;-1.586;2023-02-15T01:12:38;32.22;;;17.15;;
71164;SDS011;58859;55.132;-1.586;2023-02-15T01:15:03;35.13;;;16.40;;
71164;SDS011;58859;55.132;-1.586;2023-02-15T01:17:29;31.33;;;16.70;;
71164;SDS011;58859;55.132;-1.586;2023-02-15T01:19:56;35.35;;;17.88;;
71164;SDS011;58859;55.132;-1.586;2023-02-15T01:22:21;38.00;;;18.10;;
71164;SDS011;58859;55.132;-1.586;2023-02-15T01:24:48;34.27;;;15.53;;
71164;SDS011;58859;55.132;-1.586;2023-02-15T01:27:14;31.42;;;16.05;;
71164;SDS011;58859;55.132;-1.586;2023-02-15T01:29:39;32.07;;;14.40;;
71164;SDS011;58859;55.132;-1.586;2023-02-15T01:32:05;33.10;;;15.83;;
71164;SDS011;58859;55.132;-1.586;2023-02-15T01:34:30;28.55;;;14.63;;
71164;SDS011;58859;55.132;-1.586;2023-02-15T01:36:55;27.05;;;13.98;;
71164;SDS011;58859;55.132;-1.586;2023-02-15T01:39:21;31.57;;;15.20;;
71164;SDS011;58859;55.132;-1.586;2023-02-15T01:41:46;29.30;;;15.07;;
71164;SDS011;58859;55.132;-1.586;2023-02-15T01:47:20;26.48;;;13.38;;
71164;SDS011;58859;55.132;-1.586;2023-02-15T01:49:51;30.88;;;14.15;;
71164;SDS011;58859;55.132;-1.586;2023-02-15T01:52:36;25.77;;;12.87;;
71164;SDS011;58859;55.132;-1.586;2023-02-15T01:55:03;26.10;;;13.68;;
71164;SDS011;58859;55.132;-1.586;2023-02-15T01:57:29;23.33;;;13.77;;
71164;SDS011;58859;55.132;-1.586;2023-02-15T01:59:56;32.30;;;15.27;;
71164;SDS011;58859;55.132;-1.586;2023-02-15T02:02:24;30.27;;;17.20;;
71164;SDS011;58859;55.132;-1.586;2023-02-15T02:04:54;28.65;;;16.52;;
71164;SDS011;58859;55.132;-1.586;2023-02-15T02:07:24;28.08;;;16.15;;
71164;SDS011;58859;55.132;-1.586;2023-02-15T02:09:52;29.30;;;16.88;;
71164;SDS011;58859;55.132;-1.586;2023-02-15T02:12:17;29.63;;;16.27;;
71164;SDS011;58859;55.132;-1.586;2023-02-15T02:14:43;27.95;;;16.92;;
71164;SDS011;58859;55.132;-1.586;2023-02-15T02:17:35;28.35;;;16.30;;
71164;SDS011;58859;55.132;-1.586;2023-02-15T02:28:49;30.00;;;14.73;;
71164;SDS011;58859;55.132;-1.586;2023-02-15T02:33:57;31.90;;;15.07;;
71164;SDS011;58859;55.132;-1.586;2023-02-15T02:39:27;25.83;;;12.98;;
71164;SDS011;58859;55.132;-1.586;2023-02-15T02:47:12;23.75;;;11.80;;
71164;SDS011;58859;55.132;-1.586;2023-02-15T02:49:44;23.05;;;12.32;;
71164;SDS011;58859;55.132;-1.586;2023-02-15T02:54:59;25.23;;;12.82;;
71164;SDS011;58859;55.132;-1.586;2023-02-15T02:57:26;22.20;;;12.98;;
71164;SDS011;58859;55.132;-1.586;2023-02-15T02:59:51;26.45;;;13.85;;
71164;SDS011;58859;55.132;-1.586;2023-02-15T03:02:21;26.10;;;13.87;;
71164;SDS011;58859;55.132;-1.586;2023-02-15T03:04:51;29.80;;;13.88;;
71164;SDS011;58859;55.132;-1.586;2023-02-15T03:07:23;28.30;;;13.77;;
71164;SDS011;58859;55.132;-1.586;2023-02-15T03:09:54;24.90;;;13.30;;
71164;SDS011;58859;55.132;-1.586;2023-02-15T03:14:55;23.93;;;13.80;;
71164;SDS011;58859;55.132;-1.586;2023-02-15T03:17:26;22.88;;;12.57;;
71164;SDS011;58859;55.132;-1.586;2023-02-15T03:19:53;22.38;;;12.85;;
71164;SDS011;58859;55.132;-1.586;2023-02-15T03:22:25;22.70;;;12.65;;
71164;SDS011;58859;55.132;-1.586;2023-02-15T03:25:02;22.40;;;12.60;;
71164;SDS011;58859;55.132;-1.586;2023-02-15T03:27:52;23.20;;;11.97;;
71164;SDS011;58859;55.132;-1.586;2023-02-15T03:30:24;20.67;;;11.55;;
71164;SDS011;58859;55.132;-1.586;2023-02-15T03:32:50;19.90;;;11.30;;
71164;SDS011;58859;55.132;-1.586;2023-02-15T03:35:16;21.50;;;11.38;;
71164;SDS011;58859;55.132;-1.586;2023-02-15T03:43:10;25.42;;;12.40;;
71164;SDS011;58859;55.132;-1.586;2023-02-15T03:45:38;21.70;;;11.43;;
71164;SDS011;58859;55.132;-1.586;2023-02-15T03:48:19;19.63;;;11.02;;
71164;SDS011;58859;55.132;-1.586;2023-02-15T03:51:00;22.77;;;11.07;;
71164;SDS011;58859;55.132;-1.586;2023-02-15T03:53:48;24.58;;;12.15;;
71164;SDS011;58859;55.132;-1.586;2023-02-15T03:56:14;26.23;;;12.57;;
71164;SDS011;58859;55.132;-1.586;2023-02-15T03:58:39;25.13;;;12.07;;
71164;SDS011;58859;55.132;-1.586;2023-02-15T04:04:23;23.23;;;12.57;;
71164;SDS011;58859;55.132;-1.586;2023-02-15T04:06:50;23.70;;;11.77;;
71164;SDS011;58859;55.132;-1.586;2023-02-15T04:09:15;24.90;;;12.18;;
71164;SDS011;58859;55.132;-1.586;2023-02-15T04:11:59;23.95;;;12.05;;
71164;SDS011;58859;55.132;-1.586;2023-02-15T04:14:25;24.98;;;12.98;;
71164;SDS011;58859;55.132;-1.586;2023-02-15T04:17:09;24.40;;;11.93;;
71164;SDS011;58859;55.132;-1.586;2023-02-15T04:19:34;24.83;;;12.27;;
71164;SDS011;58859;55.132;-1.586;2023-02-15T04:22:19;25.55;;;12.40;;
71164;SDS011;58859;55.132;-1.586;2023-02-15T04:25:03;20.67;;;12.13;;
71164;SDS011;58859;55.132;-1.586;2023-02-15T04:27:44;24.48;;;12.65;;
71164;SDS011;58859;55.132;-1.586;2023-02-15T04:30:11;23.52;;;12.50;;
71164;SDS011;58859;55.132;-1.586;2023-02-15T04:32:37;23.75;;;12.25;;
71164;SDS011;58859;55.132;-1.586;2023-02-15T04:35:03;24.80;;;13.33;;
71164;SDS011;58859;55.132;-1.586;2023-02-15T04:37:30;46.67;;;21.13;;
71164;SDS011;58859;55.132;-1.586;2023-02-15T04:39:55;43.88;;;21.00;;
71164;SDS011;58859;55.132;-1.586;2023-02-15T04:42:23;31.75;;;17.35;;
71164;SDS011;58859;55.132;-1.586;2023-02-15T04:44:49;33.17;;;15.63;;
71164;SDS011;58859;55.132;-1.586;2023-02-15T04:47:15;24.37;;;12.70;;
71164;SDS011;58859;55.132;-1.586;2023-02-15T04:49:40;27.13;;;14.20;;
71164;SDS011;58859;55.132;-1.586;2023-02-15T04:52:06;23.98;;;13.70;;
71164;SDS011;58859;55.132;-1.586;2023-02-15T04:54:31;22.83;;;12.15;;
71164;SDS011;58859;55.132;-1.586;2023-02-15T04:56:56;23.00;;;11.93;;
71164;SDS011;58859;55.132;-1.586;2023-02-15T04:59:22;21.03;;;11.10;;
71164;SDS011;58859;55.132;-1.586;2023-02-15T05:01:47;23.30;;;12.67;;
71164;SDS011;58859;55.132;-1.586;2023-02-15T05:04:12;23.53;;;12.03;;
71164;SDS011;58859;55.132;-1.586;2023-02-15T05:06:38;23.90;;;11.20;;
71164;SDS011;58859;55.132;-1.586;2023-02-15T05:09:03;19.60;;;11.70;;
71164;SDS011;58859;55.132;-1.586;2023-02-15T05:11:29;21.48;;;11.68;;
71164;SDS011;58859;55.132;-1.586;2023-02-15T05:13:54;19.07;;;10.90;;
71164;SDS011;58859;55.132;-1.586;2023-02-15T05:16:19;20.00;;;11.03;;
71164;SDS011;58859;55.132;-1.586;2023-02-15T05:18:45;22.17;;;12.47;;
71164;SDS011;58859;55.132;-1.586;2023-02-15T05:21:10;19.88;;;11.13;;
71164;SDS011;58859;55.132;-1.586;2023-02-15T05:23:36;25.67;;;11.70;;
71164;SDS011;58859;55.132;-1.586;2023-02-15T05:26:01;22.33;;;12.23;;
71164;SDS011;58859;55.132;-1.586;2023-02-15T05:28:45;19.63;;;11.02;;
71164;SDS011;58859;55.132;-1.586;2023-02-15T05:31:11;16.93;;;9.37;;
71164;SDS011;58859;55.132;-1.586;2023-02-15T05:33:38;19.77;;;10.55;;
71164;SDS011;58859;55.132;-1.586;2023-02-15T05:36:04;19.93;;;10.63;;
71164;SDS011;58859;55.132;-1.586;2023-02-15T05:38:30;19.52;;;11.48;;
71164;SDS011;58859;55.132;-1.586;2023-02-15T05:40:55;20.97;;;11.40;;
71164;SDS011;58859;55.132;-1.586;2023-02-15T05:43:21;22.48;;;11.73;;
71164;SDS011;58859;55.132;-1.586;2023-02-15T05:45:51;23.45;;;11.68;;
71164;SDS011;58859;55.132;-1.586;2023-02-15T05:48:17;20.80;;;10.75;;
71164;SDS011;58859;55.132;-1.586;2023-02-15T05:50:44;22.42;;;11.38;;
71164;SDS011;58859;55.132;-1.586;2023-02-15T05:53:10;23.67;;;11.93;;
71164;SDS011;58859;55.132;-1.586;2023-02-15T05:55:39;23.77;;;12.50;;
71164;SDS011;58859;55.132;-1.586;2023-02-15T05:58:05;21.38;;;11.20;;
71164;SDS011;58859;55.132;-1.586;2023-02-15T06:00:31;22.83;;;11.85;;
71164;SDS011;58859;55.132;-1.586;2023-02-15T06:02:56;21.63;;;11.00;;
71164;SDS011;58859;55.132;-1.586;2023-02-15T06:05:21;20.50;;;11.53;;
71164;SDS011;58859;55.132;-1.586;2023-02-15T06:07:47;23.10;;;12.67;;
71164;SDS011;58859;55.132;-1.586;2023-02-15T06:10:12;23.80;;;12.43;;
71164;SDS011;58859;55.132;-1.586;2023-02-15T06:12:38;23.37;;;13.63;;
71164;SDS011;58859;55.132;-1.586;2023-02-15T06:15:03;24.33;;;13.10;;
71164;SDS011;58859;55.132;-1.586;2023-02-15T06:17:29;24.85;;;14.38;;
71164;SDS011;58859;55.132;-1.586;2023-02-15T06:19:55;23.07;;;13.10;;
71164;SDS011;58859;55.132;-1.586;2023-02-15T06:22:20;25.73;;;13.33;;
71164;SDS011;58859;55.132;-1.586;2023-02-15T06:24:46;24.65;;;13.27;;
71164;SDS011;58859;55.132;-1.586;2023-02-15T06:27:12;25.30;;;13.27;;
71164;SDS011;58859;55.132;-1.586;2023-02-15T06:29:37;24.30;;;13.57;;
71164;SDS011;58859;55.132;-1.586;2023-02-15T06:32:03;27.67;;;14.13;;
71164;SDS011;58859;55.132;-1.586;2023-02-15T06:34:29;24.25;;;13.43;;
71164;SDS011;58859;55.132;-1.586;2023-02-15T06:36:54;29.03;;;14.33;;
71164;SDS011;58859;55.132;-1.586;2023-02-15T06:39:20;24.30;;;13.37;;
71164;SDS011;58859;55.132;-1.586;2023-02-15T06:41:45;25.67;;;14.43;;
71164;SDS011;58859;55.132;-1.586;2023-02-15T06:44:10;27.07;;;14.13;;
71164;SDS011;58859;55.132;-1.586;2023-02-15T06:46:36;28.98;;;15.13;;
71164;SDS011;58859;55.132;-1.586;2023-02-15T06:49:01;25.67;;;15.43;;
71164;SDS011;58859;55.132;-1.586;2023-02-15T06:51:27;29.17;;;13.67;;
71164;SDS011;58859;55.132;-1.586;2023-02-15T06:53:52;29.30;;;14.57;;
71164;SDS011;58859;55.132;-1.586;2023-02-15T06:56:17;29.23;;;14.97;;
71164;SDS011;58859;55.132;-1.586;2023-02-15T06:58:43;26.55;;;15.18;;
71164;SDS011;58859;55.132;-1.586;2023-02-15T07:01:10;26.77;;;15.15;;
71164;SDS011;58859;55.132;-1.586;2023-02-15T07:03:36;27.60;;;14.70;;
71164;SDS011;58859;55.132;-1.586;2023-02-15T07:06:02;26.20;;;15.47;;
71164;SDS011;58859;55.132;-1.586;2023-02-15T07:08:30;23.73;;;13.40;;
71164;SDS011;58859;55.132;-1.586;2023-02-15T07:10:56;25.70;;;14.90;;
71164;SDS011;58859;55.132;-1.586;2023-02-15T07:13:42;23.75;;;13.95;;
71164;SDS011;58859;55.132;-1.586;2023-02-15T07:16:10;23.73;;;13.55;;
71164;SDS011;58859;55.132;-1.586;2023-02-15T07:18:36;25.10;;;13.97;;
71164;SDS011;58859;55.132;-1.586;2023-02-15T07:21:01;22.27;;;12.32;;
71164;SDS011;58859;55.132;-1.586;2023-02-15T07:23:27;26.40;;;13.27;;
71164;SDS011;58859;55.132;-1.586;2023-02-15T07:25:59;25.60;;;15.23;;
71164;SDS011;58859;55.132;-1.586;2023-02-15T07:28:25;24.13;;;12.50;;
71164;SDS011;58859;55.132;-1.586;2023-02-15T07:30:50;22.63;;;12.95;;
71164;SDS011;58859;55.132;-1.586;2023-02-15T07:33:15;24.87;;;13.53;;
71164;SDS011;58859;55.132;-1.586;2023-02-15T07:35:58;27.10;;;12.88;;
71164;SDS011;58859;55.132;-1.586;2023-02-15T07:38:27;21.53;;;12.27;;
71164;SDS011;58859;55.132;-1.586;2023-02-15T07:41:02;22.80;;;12.35;;
71164;SDS011;58859;55.132;-1.586;2023-02-15T07:43:29;22.65;;;12.07;;
71164;SDS011;58859;55.132;-1.586;2023-02-15T07:45:58;23.00;;;12.85;;
71164;SDS011;58859;55.132;-1.586;2023-02-15T07:48:29;23.08;;;12.77;;
71164;SDS011;58859;55.132;-1.586;2023-02-15T07:50:57;18.53;;;10.40;;
71164;SDS011;58859;55.132;-1.586;2023-02-15T07:53:24;20.80;;;11.23;;
71164;SDS011;58859;55.132;-1.586;2023-02-15T07:55:49;16.07;;;9.50;;
71164;SDS011;58859;55.132;-1.586;2023-02-15T07:58:15;22.93;;;12.67;;
71164;SDS011;58859;55.132;-1.586;2023-02-15T08:00:40;26.03;;;14.30;;
71164;SDS011;58859;55.132;-1.586;2023-02-15T08:03:24;28.13;;;15.05;;
71164;SDS011;58859;55.132;-1.586;2023-02-15T08:05:54;23.10;;;12.73;;
71164;SDS011;58859;55.132;-1.586;2023-02-15T08:08:22;26.27;;;13.82;;
71164;SDS011;58859;55.132;-1.586;2023-02-15T08:16:38;22.50;;;11.70;;
71164;SDS011;58859;55.132;-1.586;2023-02-15T08:21:48;25.02;;;13.27;;
71164;SDS011;58859;55.132;-1.586;2023-02-15T08:24:15;25.10;;;13.57;;
71164;SDS011;58859;55.132;-1.586;2023-02-15T08:26:42;25.33;;;15.03;;
71164;SDS011;58859;55.132;-1.586;2023-02-15T08:29:10;23.73;;;13.80;;
71164;SDS011;58859;55.132;-1.586;2023-02-15T08:31:36;25.05;;;13.48;;
71164;SDS011;58859;55.132;-1.586;2023-02-15T08:34:02;23.05;;;12.90;;
71164;SDS011;58859;55.132;-1.586;2023-02-15T08:36:28;23.98;;;12.10;;
71164;SDS011;58859;55.132;-1.586;2023-02-15T08:38:56;22.40;;;14.10;;
71164;SDS011;58859;55.132;-1.586;2023-02-15T08:41:23;24.02;;;12.18;;
71164;SDS011;58859;55.132;-1.586;2023-02-15T08:43:51;22.98;;;12.60;;
71164;SDS011;58859;55.132;-1.586;2023-02-15T08:46:21;20.77;;;12.18;;
71164;SDS011;58859;55.132;-1.586;2023-02-15T08:48:48;21.25;;;12.02;;
71164;SDS011;58859;55.132;-1.586;2023-02-15T08:51:17;22.73;;;12.23;;
71164;SDS011;58859;55.132;-1.586;2023-02-15T08:53:48;26.00;;;13.40;;
71164;SDS011;58859;55.132;-1.586;2023-02-15T08:56:16;23.65;;;12.35;;
71164;SDS011;58859;55.132;-1.586;2023-02-15T08:58:42;21.98;;;11.75;;
71164;SDS011;58859;55.132;-1.586;2023-02-15T09:01:11;28.67;;;14.60;;
71164;SDS011;58859;55.132;-1.586;2023-02-15T09:03:37;13.15;;;7.35;;
71164;SDS011;58859;55.132;-1.586;2023-02-15T09:06:03;23.10;;;12.70;;
71164;SDS011;58859;55.132;-1.586;2023-02-15T09:08:29;14.47;;;7.93;;
71164;SDS011;58859;55.132;-1.586;2023-02-15T09:11:03;22.20;;;12.93;;
71164;SDS011;58859;55.132;-1.586;2023-02-15T09:13:33;23.43;;;12.83;;
71164;SDS011;58859;55.132;-1.586;2023-02-15T09:16:02;23.33;;;12.35;;
71164;SDS011;58859;55.132;-1.586;2023-02-15T09:18:30;20.10;;;10.63;;
71164;SDS011;58859;55.132;-1.586;2023-02-15T09:20:57;25.77;;;12.23;;
71164;SDS011;58859;55.132;-1.586;2023-02-15T09:23:22;25.73;;;12.43;;
71164;SDS011;58859;55.132;-1.586;2023-02-15T09:25:47;21.33;;;11.30;;
71164;SDS011;58859;55.132;-1.586;2023-02-15T09:28:13;21.97;;;12.30;;
71164;SDS011;58859;55.132;-1.586;2023-02-15T09:30:38;20.15;;;11.60;;
71164;SDS011;58859;55.132;-1.586;2023-02-15T09:33:04;21.63;;;11.60;;
71164;SDS011;58859;55.132;-1.586;2023-02-15T09:35:29;24.43;;;13.23;;
71164;SDS011;58859;55.132;-1.586;2023-02-15T09:37:54;22.67;;;13.00;;
71164;SDS011;58859;55.132;-1.586;2023-02-15T09:40:20;20.70;;;11.93;;
71164;SDS011;58859;55.132;-1.586;2023-02-15T09:43:22;20.92;;;11.35;;
71164;SDS011;58859;55.132;-1.586;2023-02-15T09:48:42;20.47;;;12.40;;
71164;SDS011;58859;55.132;-1.586;2023-02-15T09:51:21;20.13;;;11.70;;
71164;SDS011;58859;55.132;-1.586;2023-02-15T09:56:55;20.10;;;10.80;;
71164;SDS011;58859;55.132;-1.586;2023-02-15T10:28:25;20.85;;;13.43;;
71164;SDS011;58859;55.132;-1.586;2023-02-15T10:30:53;19.65;;;12.70;;
71164;SDS011;58859;55.132;-1.586;2023-02-15T10:33:40;21.98;;;12.63;;
71164;SDS011;58859;55.132;-1.586;2023-02-15T10:44:13;20.50;;;10.82;;
71164;SDS011;58859;55.132;-1.586;2023-02-15T11:01:05;21.45;;;12.60;;
71164;SDS011;58859;55.132;-1.586;2023-02-15T11:06:36;22.23;;;13.13;;
71164;SDS011;58859;55.132;-1.586;2023-02-15T11:09:05;19.38;;;12.18;;
71164;SDS011;58859;55.132;-1.586;2023-02-15T11:11:41;21.30;;;13.57;;
71164;SDS011;58859;55.132;-1.586;2023-02-15T11:14:57;20.90;;;11.35;;
71164;SDS011;58859;55.132;-1.586;2023-02-15T11:17:02;21.58;;;12.00;;
71164;SDS011;58859;55.132;-1.586;2023-02-15T11:19:32;20.75;;;12.15;;
71164;SDS011;58859;55.132;-1.586;2023-02-15T11:22:01;20.98;;;11.45;;
71164;SDS011;58859;55.132;-1.586;2023-02-15T11:24:30;23.10;;;13.50;;
71164;SDS011;58859;55.132;-1.586;2023-02-15T11:27:02;24.17;;;12.77;;
71164;SDS011;58859;55.132;-1.586;2023-02-15T11:29:34;21.30;;;13.70;;
71164;SDS011;58859;55.132;-1.586;2023-02-15T11:32:19;25.63;;;13.93;;
71164;SDS011;58859;55.132;-1.586;2023-02-15T11:34:51;23.58;;;13.27;;
71164;SDS011;58859;55.132;-1.586;2023-02-15T11:37:21;22.70;;;12.77;;
71164;SDS011;58859;55.132;-1.586;2023-02-15T11:39:50;23.95;;;12.13;;
71164;SDS011;58859;55.132;-1.586;2023-02-15T11:42:20;22.02;;;12.32;;
71164;SDS011;58859;55.132;-1.586;2023-02-15T11:47:24;12.98;;;6.55;;
71164;SDS011;58859;55.132;-1.586;2023-02-15T11:49:49;10.57;;;5.57;;
71164;SDS011;58859;55.132;-1.586;2023-02-15T11:52:15;12.27;;;5.53;;
71164;SDS011;58859;55.132;-1.586;2023-02-15T11:54:42;9.13;;;4.55;;
71164;SDS011;58859;55.132;-1.586;2023-02-15T11:59:37;7.70;;;5.03;;
71164;SDS011;58859;55.132;-1.586;2023-02-15T12:02:16;4.85;;;3.63;;
71164;SDS011;58859;55.132;-1.586;2023-02-15T12:04:45;4.43;;;3.47;;
71164;SDS011;58859;55.132;-1.586;2023-02-15T12:12:27;7.18;;;4.65;;
71164;SDS011;58859;55.132;-1.586;2023-02-15T12:14:58;10.77;;;6.68;;
71164;SDS011;58859;55.132;-1.586;2023-02-15T12:17:26;5.17;;;4.13;;
71164;SDS011;58859;55.132;-1.586;2023-02-15T12:19:55;8.50;;;4.53;;
71164;SDS011;58859;55.132;-1.586;2023-02-15T12:24:48;4.70;;;3.38;;
71164;SDS011;58859;55.132;-1.586;2023-02-15T12:27:37;11.40;;;4.93;;
71164;SDS011;58859;55.132;-1.586;2023-02-15T12:33:13;6.15;;;3.88;;
71164;SDS011;58859;55.132;-1.586;2023-02-15T12:35:43;5.57;;;3.72;;
71164;SDS011;58859;55.132;-1.586;2023-02-15T12:41:02;5.50;;;3.58;;
71164;SDS011;58859;55.132;-1.586;2023-02-15T12:43:47;7.72;;;5.03;;
71164;SDS011;58859;55.132;-1.586;2023-02-15T12:46:23;9.70;;;5.75;;
71164;SDS011;58859;55.132;-1.586;2023-02-15T12:49:36;6.40;;;4.43;;
71164;SDS011;58859;55.132;-1.586;2023-02-15T12:51:42;8.02;;;4.97;;
71164;SDS011;58859;55.132;-1.586;2023-02-15T12:54:16;6.30;;;3.70;;
71164;SDS011;58859;55.132;-1.586;2023-02-15T12:56:56;5.45;;;4.30;;
71164;SDS011;58859;55.132;-1.586;2023-02-15T12:59:23;6.50;;;4.97;;
71164;SDS011;58859;55.132;-1.586;2023-02-15T13:01:48;8.00;;;4.18;;
71164;SDS011;58859;55.132;-1.586;2023-02-15T13:06:48;4.95;;;3.83;;
71164;SDS011;58859;55.132;-1.586;2023-02-15T13:11:45;8.15;;;4.03;;
71164;SDS011;58859;55.132;-1.586;2023-02-15T13:17:02;7.75;;;4.57;;
71164;SDS011;58859;55.132;-1.586;2023-02-15T13:19:35;4.90;;;3.42;;
71164;SDS011;58859;55.132;-1.586;2023-02-15T13:22:05;8.38;;;5.57;;
71164;SDS011;58859;55.132;-1.586;2023-02-15T13:24:34;6.35;;;4.35;;
71164;SDS011;58859;55.132;-1.586;2023-02-15T13:27:02;6.57;;;4.93;;
71164;SDS011;58859;55.132;-1.586;2023-02-15T13:29:33;7.57;;;4.90;;
71164;SDS011;58859;55.132;-1.586;2023-02-15T13:32:04;6.75;;;3.95;;
71164;SDS011;58859;55.132;-1.586;2023-02-15T13:34:46;10.35;;;4.68;;
71164;SDS011;58859;55.132;-1.586;2023-02-15T13:42:32;6.57;;;3.88;;
71164;SDS011;58859;55.132;-1.586;2023-02-15T13:48:09;4.25;;;3.22;;
71164;SDS011;58859;55.132;-1.586;2023-02-15T13:56:12;3.72;;;3.00;;
71164;SDS011;58859;55.132;-1.586;2023-02-15T14:14:52;2.22;;;2.03;;
71164;SDS011;58859;55.132;-1.586;2023-02-15T14:20:57;1.63;;;1.52;;
71164;SDS011;58859;55.132;-1.586;2023-02-15T14:23:31;2.63;;;1.80;;
71164;SDS011;58859;55.132;-1.586;2023-02-15T14:31:12;2.70;;;1.80;;
71164;SDS011;58859;55.132;-1.586;2023-02-15T14:33:40;1.92;;;1.80;;
71164;SDS011;58859;55.132;-1.586;2023-02-15T14:36:08;2.30;;;2.03;;
71164;SDS011;58859;55.132;-1.586;2023-02-15T14:42:11;2.35;;;1.92;;
71164;SDS011;58859;55.132;-1.586;2023-02-15T14:44:45;2.67;;;1.83;;
71164;SDS011;58859;55.132;-1.586;2023-02-15T14:47:22;2.88;;;2.17;;
71164;SDS011;58859;55.132;-1.586;2023-02-15T14:49:52;3.33;;;2.50;;
71164;SDS011;58859;55.132;-1.586;2023-02-15T14:52:18;2.53;;;1.93;;
71164;SDS011;58859;55.132;-1.586;2023-02-15T15:02:11;2.20;;;2.00;;
71164;SDS011;58859;55.132;-1.586;2023-02-15T15:04:43;2.90;;;2.10;;
71164;SDS011;58859;55.132;-1.586;2023-02-15T15:09:38;5.87;;;2.93;;
71164;SDS011;58859;55.132;-1.586;2023-02-15T15:12:18;6.75;;;3.67;;
71164;SDS011;58859;55.132;-1.586;2023-02-15T15:15:00;6.97;;;3.83;;
71164;SDS011;58859;55.132;-1.586;2023-02-15T15:19:58;3.28;;;1.92;;
71164;SDS011;58859;55.132;-1.586;2023-02-15T15:22:24;5.27;;;3.33;;
71164;SDS011;58859;55.132;-1.586;2023-02-15T15:24:52;4.85;;;3.17;;
71164;SDS011;58859;55.132;-1.586;2023-02-15T15:49:14;10.88;;;5.32;;
71164;SDS011;58859;55.132;-1.586;2023-02-15T15:51:41;7.80;;;4.60;;
71164;SDS011;58859;55.132;-1.586;2023-02-15T15:54:17;8.43;;;4.80;;
71164;SDS011;58859;55.132;-1.586;2023-02-15T15:56:50;9.05;;;5.25;;
71164;SDS011;58859;55.132;-1.586;2023-02-15T15:59:19;14.63;;;6.88;;
71164;SDS011;58859;55.132;-1.586;2023-02-15T16:01:55;11.55;;;5.68;;
71164;SDS011;58859;55.132;-1.586;2023-02-15T16:04:26;10.70;;;4.78;;
71164;SDS011;58859;55.132;-1.586;2023-02-15T16:06:54;5.95;;;3.10;;
71164;SDS011;58859;55.132;-1.586;2023-02-15T16:09:22;3.88;;;2.95;;
71164;SDS011;58859;55.132;-1.586;2023-02-15T16:11:53;5.72;;;2.75;;
71164;SDS011;58859;55.132;-1.586;2023-02-15T16:14:25;3.30;;;2.60;;
71164;SDS011;58859;55.132;-1.586;2023-02-15T16:16:55;10.38;;;3.42;;
71164;SDS011;58859;55.132;-1.586;2023-02-15T16:19:23;5.20;;;2.97;;
71164;SDS011;58859;55.132;-1.586;2023-02-15T16:21:51;6.32;;;2.67;;
71164;SDS011;58859;55.132;-1.586;2023-02-15T16:27:15;5.47;;;1.67;;
71164;SDS011;58859;55.132;-1.586;2023-02-15T16:32:47;4.40;;;1.70;;
71164;SDS011;58859;55.132;-1.586;2023-02-15T16:35:14;4.85;;;2.85;;
71164;SDS011;58859;55.132;-1.586;2023-02-15T16:37:44;2.90;;;2.50;;
71164;SDS011;58859;55.132;-1.586;2023-02-15T16:40:26;10.30;;;3.63;;
71164;SDS011;58859;55.132;-1.586;2023-02-15T16:42:56;4.85;;;3.15;;
71164;SDS011;58859;55.132;-1.586;2023-02-15T16:45:25;10.48;;;4.45;;
71164;SDS011;58859;55.132;-1.586;2023-02-15T16:47:57;8.40;;;3.72;;
71164;SDS011;58859;55.132;-1.586;2023-02-15T16:50:35;7.70;;;3.97;;
71164;SDS011;58859;55.132;-1.586;2023-02-15T16:53:02;6.78;;;3.85;;
71164;SDS011;58859;55.132;-1.586;2023-02-15T16:55:30;4.85;;;2.92;;
71164;SDS011;58859;55.132;-1.586;2023-02-15T16:58:04;4.57;;;2.85;;
71164;SDS011;58859;55.132;-1.586;2023-02-15T17:00:31;4.43;;;2.22;;
71164;SDS011;58859;55.132;-1.586;2023-02-15T17:03:00;5.20;;;2.30;;
71164;SDS011;58859;55.132;-1.586;2023-02-15T17:05:40;3.97;;;2.40;;
71164;SDS011;58859;55.132;-1.586;2023-02-15T17:10:44;4.88;;;2.33;;
71164;SDS011;58859;55.132;-1.586;2023-02-15T17:13:12;3.60;;;2.05;;
71164;SDS011;58859;55.132;-1.586;2023-02-15T17:15:42;2.92;;;1.83;;
71164;SDS011;58859;55.132;-1.586;2023-02-15T17:18:29;3.30;;;1.55;;
71164;SDS011;58859;55.132;-1.586;2023-02-15T17:20:57;3.03;;;1.50;;
71164;SDS011;58859;55.132;-1.586;2023-02-15T17:25:55;6.05;;;2.33;;
71164;SDS011;58859;55.132;-1.586;2023-02-15T17:28:25;8.37;;;3.90;;
71164;SDS011;58859;55.132;-1.586;2023-02-15T17:30:53;6.40;;;3.50;;
71164;SDS011;58859;55.132;-1.586;2023-02-15T17:33:20;11.95;;;4.10;;
71164;SDS011;58859;55.132;-1.586;2023-02-15T17:36:20;6.20;;;3.10;;
71164;SDS011;58859;55.132;-1.586;2023-02-15T17:41:22;10.17;;;4.57;;
71164;SDS011;58859;55.132;-1.586;2023-02-15T17:44:09;5.38;;;2.92;;
71164;SDS011;58859;55.132;-1.586;2023-02-15T17:46:38;4.63;;;2.33;;
71164;SDS011;58859;55.132;-1.586;2023-02-15T17:49:04;3.75;;;1.90;;
71164;SDS011;58859;55.132;-1.586;2023-02-15T17:51:30;4.93;;;1.40;;
71164;SDS011;58859;55.132;-1.586;2023-02-15T17:53:56;3.13;;;1.63;;
71164;SDS011;58859;55.132;-1.586;2023-02-15T17:56:40;1.85;;;1.40;;
71164;SDS011;58859;55.132;-1.586;2023-02-15T17:59:05;1.87;;;1.30;;
71164;SDS011;58859;55.132;-1.586;2023-02-15T18:01:31;2.47;;;1.20;;
71164;SDS011;58859;55.132;-1.586;2023-02-15T18:04:16;2.83;;;1.48;;
71164;SDS011;58859;55.132;-1.586;2023-02-15T18:07:00;3.25;;;1.55;;
71164;SDS011;58859;55.132;-1.586;2023-02-15T18:09:44;6.03;;;2.40;;
71164;SDS011;58859;55.132;-1.586;2023-02-15T18:12:32;2.80;;;2.58;;
71164;SDS011;58859;55.132;-1.586;2023-02-15T18:14:59;6.30;;;3.20;;